Time;durP1;ratioP1;P1;durP2;ratioP2;P2;SDS_P1;SDS_P2;PMS_P1;PMS_P2;Temp;Humidity;BMP_temperature;BMP_pressure;BME280_temperature;BME280_humidity;BME280_pressure;Samples;Min_cycle;Max_cycle;Signal;HPM_P1;HPM_P2
2024/04/16 00:01:53;;;;;;;;;;;;;;;7.48;100.00;101430.81;5466014;26;19927;-91
2024/04/16 00:04:19;;;;;;;;;;;;;;;7.47;100.00;101439.84;5527430;26;19927;-91
2024/04/16 00:06:44;;;;;;;;;;;;;;;7.46;100.00;101428.31;5465987;26;19934;-91
2024/04/16 00:09:10;;;;;;;;;;;;;;;7.48;100.00;101426.31;5466776;26;20258;-89
2024/04/16 00:11:35;;;;;;;;;;;;;;;7.53;100.00;101439.28;5466521;26;20249;-90
2024/04/16 00:14:01;;;;;;;;;;;;;;;7.55;100.00;101437.31;5497453;26;19934;-90
2024/04/16 00:16:26;;;;;;;;;;;;;;;7.60;100.00;101428.88;5528179;26;20260;-91
2024/04/16 00:18:52;;;;;;;;;;;;;;;7.63;100.00;101418.72;5497710;26;19934;-91
2024/04/16 00:21:18;;;;;;;;;;;;;;;7.65;100.00;101406.06;5497101;26;19927;-89
2024/04/16 00:23:43;;;;;;;;;;;;;;;7.63;100.00;101429.44;5466221;26;19940;-89
2024/04/16 00:26:09;;;;;;;;;;;;;;;7.62;100.00;101421.53;5496026;26;19928;-90
2024/04/16 00:28:34;;;;;;;;;;;;;;;7.61;100.00;101435.91;5465679;26;20434;-90
2024/04/16 00:31:00;;;;;;;;;;;;;;;7.62;100.00;101430.44;5495872;26;19960;-89
2024/04/16 00:33:25;;;;;;;;;;;;;;;7.62;100.00;101433.09;5496256;26;19997;-90
2024/04/16 00:35:51;;;;;;;;;;;;;;;7.60;100.00;101442.25;5464639;26;19953;-91
2024/04/16 00:38:16;;;;;;;;;;;;;;;7.58;100.00;101438.88;5495767;26;19935;-90
2024/04/16 00:40:42;;;;;;;;;;;;;;;7.57;100.00;101429.13;5495542;26;19939;-90
2024/04/16 00:43:18;;;;;;;;;;;;;;;7.59;100.00;101429.84;5465459;26;19934;-88
2024/04/16 00:45:53;;;;;;;;;;;;;;;7.59;100.00;101419.97;5465467;26;19927;-90
2024/04/16 00:48:26;;;;;;;;;;;;;;;7.61;100.00;101420.69;5470208;26;19996;-90
2024/04/16 00:50:54;;;;;;;;;;;;;;;7.56;100.00;101430.97;5504355;25;19972;-90
2024/04/16 00:53:19;;;;;;;;;;;;;;;7.54;100.00;101435.63;5521096;25;19965;-87
2024/04/16 00:55:45;;;;;;;;;;;;;;;7.57;100.00;101426.44;5481573;26;20338;-90
2024/04/16 00:58:10;;;;;;;;;;;;;;;7.56;100.00;101414.91;5496410;26;19928;-90
2024/04/16 01:00:36;;;;;;;;;;;;;;;7.55;100.00;101418.59;5465524;26;19954;-89
2024/04/16 01:03:02;;;;;;;;;;;;;;;7.52;100.00;101410.84;5465303;26;20350;-90
2024/04/16 01:05:27;;;;;;;;;;;;;;;7.52;100.00;101418.88;5495599;26;20003;-90
2024/04/16 01:07:53;;;;;;;;;;;;;;;7.54;100.00;101422.25;5465318;26;19977;-90
2024/04/16 01:10:18;;;;;;;;;;;;;;;7.54;100.00;101416.03;5465189;26;19943;-92
2024/04/16 01:12:44;;;;;;;;;;;;;;;7.53;100.00;101422.38;5495489;26;19927;-91
2024/04/16 01:15:10;;;;;;;;;;;;;;;7.52;100.00;101421.53;5465138;26;20013;-90
2024/04/16 01:17:35;;;;;;;;;;;;;;;7.53;100.00;101400.97;5495212;26;19927;-90
2024/04/16 01:20:01;;;;;;;;;;;;;;;7.52;100.00;101405.50;5465083;26;19928;-90
2024/04/16 01:22:28;;;;;;;;;;;;;;;7.49;100.00;101392.41;5495337;26;20315;-91
2024/04/16 01:24:53;;;;;;;;;;;;;;;7.42;100.00;101408.16;5465112;26;19927;-89
2024/04/16 01:27:21;;;;;;;;;;;;;;;7.37;100.00;101412.22;5495509;26;20299;-91
2024/04/16 01:29:47;;;;;;;;;;;;;;;7.37;100.00;101405.03;5495052;26;20501;-89
2024/04/16 01:32:13;;;;;;;;;;;;;;;7.35;100.00;101408.84;5494731;26;19966;-90
2024/04/16 01:34:38;;;;;;;;;;;;;;;7.37;100.00;101393.50;5494823;26;19938;-89
2024/04/16 01:37:04;;;;;;;;;;;;;;;7.40;100.00;101399.41;5494955;26;19927;-91
2024/04/16 01:39:29;;;;;;;;;;;;;;;7.41;100.00;101403.78;5464337;26;19935;-91
2024/04/16 01:41:55;;;;;;;;;;;;;;;7.43;100.00;101379.56;5494825;26;19927;-91
2024/04/16 01:44:21;;;;;;;;;;;;;;;7.44;100.00;101410.69;5464409;26;19960;-90
2024/04/16 01:46:46;;;;;;;;;;;;;;;7.41;100.00;101409.13;5525656;26;20366;-91
2024/04/16 01:49:12;;;;;;;;;;;;;;;7.44;100.00;101421.41;5528704;26;19935;-90
2024/04/16 01:51:37;;;;;;;;;;;;;;;7.41;100.00;101416.28;5498380;26;19927;-90
2024/04/16 01:54:03;;;;;;;;;;;;;;;7.38;100.00;101416.56;5529171;26;19927;-89
2024/04/16 01:56:28;;;;;;;;;;;;;;;7.37;100.00;101410.38;5467888;26;19934;-91
2024/04/16 01:58:54;;;;;;;;;;;;;;;7.39;100.00;101413.78;5467925;26;20257;-90
2024/04/16 02:01:20;;;;;;;;;;;;;;;7.37;100.00;101413.06;5529033;26;19927;-91
2024/04/16 02:03:45;;;;;;;;;;;;;;;7.35;100.00;101406.16;5529219;26;19927;-90
2024/04/16 02:06:11;;;;;;;;;;;;;;;7.34;100.00;101410.66;5467790;26;19940;-90
2024/04/16 02:08:36;;;;;;;;;;;;;;;7.31;100.00;101412.78;5467633;26;19928;-89
2024/04/16 02:11:02;;;;;;;;;;;;;;;7.27;100.00;101410.38;5529347;26;19927;-91
2024/04/16 02:13:28;;;;;;;;;;;;;;;7.23;100.00;101411.66;5467698;26;19976;-90
2024/04/16 02:15:53;;;;;;;;;;;;;;;7.16;100.00;101404.31;5528694;26;19939;-91
2024/04/16 02:18:19;;;;;;;;;;;;;;;7.18;100.00;101413.88;5498063;26;20434;-90
2024/04/16 02:20:44;;;;;;;;;;;;;;;7.15;100.00;101408.81;5498100;26;19995;-90
2024/04/16 02:23:10;;;;;;;;;;;;;;;7.08;100.00;101418.34;5498080;26;19939;-89
2024/04/16 02:25:36;;;;;;;;;;;;;;;7.03;100.00;101408.06;5467715;26;19932;-90
2024/04/16 02:28:01;;;;;;;;;;;;;;;6.97;100.00;101416.66;5467623;26;19935;-89
2024/04/16 02:30:27;;;;;;;;;;;;;;;7.01;100.00;101406.50;5497881;26;20366;-90
2024/04/16 02:32:53;;;;;;;;;;;;;;;7.05;100.00;101397.25;5497722;26;19928;-91
2024/04/16 02:35:19;;;;;;;;;;;;;;;7.05;100.00;101406.09;5467704;26;19951;-90
2024/04/16 02:37:48;;;;;;;;;;;;;;;7.11;100.00;101401.19;5497767;26;19928;-90
2024/04/16 02:40:17;;;;;;;;;;;;;;;7.08;100.00;101401.47;5499401;26;19969;-91
2024/04/16 02:42:42;;;;;;;;;;;;;;;6.99;100.00;101409.34;5498409;26;19928;-90
2024/04/16 02:45:08;;;;;;;;;;;;;;;7.00;100.00;101404.84;5468481;26;19934;-92
2024/04/16 02:47:33;;;;;;;;;;;;;;;7.02;100.00;101401.03;5467523;26;19930;-89
2024/04/16 02:49:59;;;;;;;;;;;;;;;7.07;100.00;101392.63;5528509;26;20287;-91
2024/04/16 02:52:24;;;;;;;;;;;;;;;7.11;100.00;101398.53;5467337;26;19928;-90
2024/04/16 02:54:52;;;;;;;;;;;;;;;7.14;100.00;101406.25;5497810;26;19976;-89
2024/04/16 02:57:17;;;;;;;;;;;;;;;7.19;100.00;101414.72;5468200;26;19939;-90
2024/04/16 02:59:46;;;;;;;;;;;;;;;7.21;100.00;101407.41;5497165;26;20254;-91
2024/04/16 03:02:11;;;;;;;;;;;;;;;7.22;100.00;101418.00;5497473;26;19927;-90
2024/04/16 03:04:37;;;;;;;;;;;;;;;7.17;100.00;101411.34;5497473;26;19927;-91
2024/04/16 03:07:02;;;;;;;;;;;;;;;7.15;100.00;101422.19;5466985;26;20369;-90
2024/04/16 03:09:28;;;;;;;;;;;;;;;7.17;100.00;101414.88;5466840;26;19927;-90
2024/04/16 03:11:53;;;;;;;;;;;;;;;7.19;100.00;101417.41;5467178;26;19943;-90
2024/04/16 03:14:19;;;;;;;;;;;;;;;7.20;100.00;101419.09;5497472;26;19931;-91
2024/04/16 03:16:45;;;;;;;;;;;;;;;7.18;100.00;101426.41;5466674;26;20322;-90
2024/04/16 03:19:10;;;;;;;;;;;;;;;7.18;100.00;101416.56;5466880;26;19939;-90
2024/04/16 03:21:36;;;;;;;;;;;;;;;7.18;100.00;101426.41;5470081;26;19927;-90
2024/04/16 03:24:01;;;;;;;;;;;;;;;7.16;100.00;101412.31;5480232;25;19981;-91
2024/04/16 03:26:27;;;;;;;;;;;;;;;7.10;100.00;101416.41;5491979;25;19920;-91
2024/04/16 03:28:52;;;;;;;;;;;;;;;7.07;100.00;101414.00;5537758;25;19927;-90
2024/04/16 03:31:18;;;;;;;;;;;;;;;7.05;100.00;101422.16;5496834;26;20021;-91
2024/04/16 03:33:43;;;;;;;;;;;;;;;7.05;100.00;101423.97;5466546;26;20371;-91
2024/04/16 03:36:09;;;;;;;;;;;;;;;6.95;100.00;101423.09;5529558;25;20243;-90
2024/04/16 03:38:35;;;;;;;;;;;;;;;6.89;100.00;101420.97;5528302;26;20378;-90
2024/04/16 03:41:00;;;;;;;;;;;;;;;6.81;100.00;101419.81;5497493;26;20318;-90
2024/04/16 03:43:26;;;;;;;;;;;;;;;6.75;100.00;101422.22;5527566;26;20320;-90
2024/04/16 03:45:52;;;;;;;;;;;;;;;6.62;100.00;101416.25;5466570;26;19939;-90
2024/04/16 03:48:18;;;;;;;;;;;;;;;6.52;100.00;101425.03;5496618;26;20359;-89
2024/04/16 03:50:43;;;;;;;;;;;;;;;6.38;100.00;101425.41;5466533;26;19938;-90
2024/04/16 03:53:09;;;;;;;;;;;;;;;6.28;100.00;101421.81;5497002;26;20270;-90
2024/04/16 03:55:36;;;;;;;;;;;;;;;6.24;100.00;101429.25;5527642;26;20354;-90
2024/04/16 03:58:02;;;;;;;;;;;;;;;6.11;100.00;101428.59;5496970;26;19928;-90
2024/04/16 04:03:16;;;;;;;;;;;;;;;5.97;100.00;101431.59;5508255;26;19939;-89
2024/04/16 04:05:45;;;;;;;;;;;;;;;5.98;100.00;101430.59;5502372;26;19934;-90
2024/04/16 04:08:10;;;;;;;;;;;;;;;5.97;100.00;101427.09;5501066;26;19972;-89
2024/04/16 04:10:36;;;;;;;;;;;;;;;5.97;100.00;101424.44;5468604;26;19935;-89
2024/04/16 04:13:01;;;;;;;;;;;;;;;5.93;100.00;101422.97;5465910;26;20250;-89
2024/04/16 04:15:26;;;;;;;;;;;;;;;5.88;100.00;101430.53;5465954;26;19927;-89
2024/04/16 04:17:52;;;;;;;;;;;;;;;5.85;100.00;101423.63;5466064;26;19928;-91
2024/04/16 04:20:18;;;;;;;;;;;;;;;5.86;100.00;101424.47;5496065;26;19927;-90
2024/04/16 04:22:43;;;;;;;;;;;;;;;5.89;100.00;101430.38;5496254;26;19928;-89
2024/04/16 04:25:09;;;;;;;;;;;;;;;5.84;100.00;101421.91;5526951;26;19927;-91
2024/04/16 04:27:34;;;;;;;;;;;;;;;5.86;100.00;101424.47;5496248;26;19939;-90
2024/04/16 04:30:00;;;;;;;;;;;;;;;5.86;100.00;101429.78;5496185;26;19927;-91
2024/04/16 04:32:25;;;;;;;;;;;;;;;5.90;100.00;101436.56;5496236;26;20352;-89
2024/04/16 04:34:51;;;;;;;;;;;;;;;6.01;100.00;101433.03;5496181;26;19999;-90
2024/04/16 04:37:17;;;;;;;;;;;;;;;6.02;100.00;101448.91;5496135;26;19928;-90
2024/04/16 04:39:43;;;;;;;;;;;;;;;6.10;100.00;101437.59;5527474;26;19972;-89
2024/04/16 04:42:08;;;;;;;;;;;;;;;6.21;100.00;101444.69;5496409;26;19934;-91
2024/04/16 04:44:34;;;;;;;;;;;;;;;6.27;100.00;101450.38;5526933;26;19927;-91
2024/04/16 04:47:00;;;;;;;;;;;;;;;6.21;100.00;101461.56;5495786;26;20258;-89
2024/04/16 04:49:25;;;;;;;;;;;;;;;6.20;100.00;101440.34;5526418;26;19927;-91
2024/04/16 04:51:51;;;;;;;;;;;;;;;6.19;100.00;101450.16;5495666;26;19976;-89
2024/04/16 04:54:16;;;;;;;;;;;;;;;6.20;100.00;101459.88;5495697;26;19935;-90
2024/04/16 04:56:42;;;;;;;;;;;;;;;6.19;100.00;101459.97;5495794;26;19947;-90
2024/04/16 04:59:07;;;;;;;;;;;;;;;6.10;100.00;101456.28;5495475;26;19972;-90
2024/04/16 05:01:33;;;;;;;;;;;;;;;6.03;100.00;101458.59;5495524;26;19938;-90
2024/04/16 05:03:58;;;;;;;;;;;;;;;5.94;100.00;101460.22;5495725;26;19927;-90
2024/04/16 05:06:24;;;;;;;;;;;;;;;5.86;100.00;101467.16;5495739;26;19934;-90
2024/04/16 05:08:49;;;;;;;;;;;;;;;5.81;100.00;101464.03;5526065;26;19939;-90
2024/04/16 05:11:15;;;;;;;;;;;;;;;5.82;100.00;101471.91;5465363;26;20430;-90
2024/04/16 05:13:40;;;;;;;;;;;;;;;5.81;100.00;101470.22;5465079;26;19975;-89
2024/04/16 05:16:06;;;;;;;;;;;;;;;5.79;100.00;101458.81;5495376;26;19927;-90
2024/04/16 05:18:31;;;;;;;;;;;;;;;5.75;100.00;101470.72;5495327;26;19995;-90
2024/04/16 05:20:58;;;;;;;;;;;;;;;5.76;100.00;101466.22;5465080;26;19928;-89
2024/04/16 05:23:24;;;;;;;;;;;;;;;5.78;100.00;101466.97;5468821;26;19931;-90
2024/04/16 05:26:02;;;;;;;;;;;;;;;5.83;100.00;101473.59;5468280;26;19999;-90
2024/04/16 05:28:27;;;;;;;;;;;;;;;5.84;100.00;101459.28;5500370;26;19934;-89
2024/04/16 05:30:53;;;;;;;;;;;;;;;5.87;100.00;101469.69;5498611;26;19932;-89
2024/04/16 05:33:19;;;;;;;;;;;;;;;5.88;100.00;101476.75;5468098;26;20366;-89
2024/04/16 05:35:44;;;;;;;;;;;;;;;5.91;100.00;101479.16;5498409;26;19996;-90
2024/04/16 05:38:10;;;;;;;;;;;;;;;5.87;100.00;101475.03;5498551;26;19927;-89
2024/04/16 05:40:35;;;;;;;;;;;;;;;5.83;100.00;101483.44;5498742;26;19995;-89
2024/04/16 05:43:01;;;;;;;;;;;;;;;5.83;100.00;101480.78;5498932;26;19935;-89
2024/04/16 05:45:32;;;;;;;;;;;;;;;5.85;100.00;101486.84;5471533;26;19928;-89
2024/04/16 05:47:58;;;;;;;;;;;;;;;5.84;100.00;101490.47;5540117;25;19927;-89
2024/04/16 05:50:24;;;;;;;;;;;;;;;5.92;100.00;101488.84;5492813;25;19935;-90
2024/04/16 05:52:49;;;;;;;;;;;;;;;6.02;100.00;101504.97;5484465;26;19955;-90
2024/04/16 05:55:15;;;;;;;;;;;;;;;6.10;100.00;101499.84;5498905;26;19927;-90
2024/04/16 05:57:40;;;;;;;;;;;;;;;6.21;100.00;101511.44;5498605;26;19927;-90
2024/04/16 06:00:06;;;;;;;;;;;;;;;6.20;100.00;101504.44;5467841;26;19936;-90
2024/04/16 06:02:32;;;;;;;;;;;;;;;6.11;100.00;101514.03;5529171;26;19940;-89
2024/04/16 06:04:57;;;;;;;;;;;;;;;5.95;100.00;101514.47;5468070;26;19927;-90
2024/04/16 06:07:23;;;;;;;;;;;;;;;5.82;100.00;101511.06;5468213;26;19934;-89
2024/04/16 06:09:48;;;;;;;;;;;;;;;5.76;100.00;101519.59;5467923;26;20247;-90
2024/04/16 06:12:15;;;;;;;;;;;;;;;5.65;100.00;101491.13;5497853;26;19931;-90
2024/04/16 06:14:40;;;;;;;;;;;;;;;5.62;100.00;101518.06;5498277;26;20350;-89
2024/04/16 06:17:06;;;;;;;;;;;;;;;5.56;100.00;101530.09;5529187;26;19927;-90
2024/04/16 06:19:34;;;;;;;;;;;;;;;5.43;100.00;101534.72;5468423;26;20250;-90
2024/04/16 06:22:00;;;;;;;;;;;;;;;5.43;100.00;101532.06;5529340;26;19927;-90
2024/04/16 06:24:25;;;;;;;;;;;;;;;5.56;100.00;101546.09;5467454;26;19995;-90
2024/04/16 06:26:51;;;;;;;;;;;;;;;6.01;100.00;101532.66;5498053;26;19935;-90
2024/04/16 06:29:16;;;;;;;;;;;;;;;5.98;100.00;101529.38;5498083;26;19967;-90
2024/04/16 06:31:42;;;;;;;;;;;;;;;5.99;100.00;101539.09;5498303;26;19995;-90
2024/04/16 06:34:07;;;;;;;;;;;;;;;5.94;100.00;101542.13;5466434;26;19935;-91
2024/04/16 06:36:33;;;;;;;;;;;;;;;6.05;100.00;101539.41;5528681;26;19931;-90
2024/04/16 06:38:58;;;;;;;;;;;;;;;6.76;100.00;101544.16;5528380;26;19935;-89
2024/04/16 06:41:24;;;;;;;;;;;;;;;7.29;100.00;101538.66;5497955;26;19927;-90
2024/04/16 06:43:50;;;;;;;;;;;;;;;6.86;100.00;101541.56;5498282;26;19927;-90
2024/04/16 06:46:15;;;;;;;;;;;;;;;7.11;100.00;101546.44;5498012;26;19934;-89
2024/04/16 06:48:41;;;;;;;;;;;;;;;8.04;100.00;101552.47;5467497;26;19928;-90
2024/04/16 06:51:07;;;;;;;;;;;;;;;8.64;100.00;101558.53;5497738;26;20054;-91
2024/04/16 06:53:32;;;;;;;;;;;;;;;8.97;100.00;101556.34;5498024;26;19934;-92
2024/04/16 06:56:04;;;;;;;;;;;;;;;9.15;100.00;101561.78;5468266;26;19934;-89
2024/04/16 06:58:30;;;;;;;;;;;;;;;9.20;100.00;101567.56;5468450;26;19938;-90
2024/04/16 07:00:56;;;;;;;;;;;;;;;9.60;100.00;101580.66;5498334;26;19932;-90
2024/04/16 07:03:22;;;;;;;;;;;;;;;9.71;100.00;101573.41;5498440;26;19939;-91
2024/04/16 07:05:47;;;;;;;;;;;;;;;9.07;100.00;101577.78;5498199;26;19995;-91
2024/04/16 07:08:13;;;;;;;;;;;;;;;8.44;100.00;101583.66;5497599;26;19927;-91
2024/04/16 07:10:38;;;;;;;;;;;;;;;9.31;100.00;101579.97;5498030;26;19939;-92
2024/04/16 07:13:04;;;;;;;;;;;;;;;10.22;100.00;101582.69;5497715;26;19936;-91
2024/04/16 07:15:30;;;;;;;;;;;;;;;9.66;100.00;101582.78;5468785;26;19939;-90
2024/04/16 07:17:56;;;;;;;;;;;;;;;10.54;94.62;101588.38;5474511;26;19972;-91
2024/04/16 07:20:22;;;;;;;;;;;;;;;11.38;81.96;101578.84;5537868;26;19968;-91
2024/04/16 07:23:06;;;;;;;;;;;;;;;11.77;76.89;101574.78;5506320;26;20273;-90
2024/04/16 07:25:31;;;;;;;;;;;;;;;11.90;71.73;101575.19;5477460;26;19927;-91
2024/04/16 07:27:57;;;;;;;;;;;;;;;12.09;69.32;101579.44;5497628;26;19928;-91
2024/04/16 07:30:25;;;;;;;;;;;;;;;12.28;68.05;101584.53;5497750;26;19927;-90
2024/04/16 07:32:51;;;;;;;;;;;;;;;12.46;67.33;101588.91;5467327;26;19934;-91
2024/04/16 07:35:17;;;;;;;;;;;;;;;12.68;65.49;101587.44;5467407;26;19927;-91
2024/04/16 07:37:42;;;;;;;;;;;;;;;12.82;63.66;101584.03;5468217;26;19928;-91
2024/04/16 07:40:08;;;;;;;;;;;;;;;13.18;63.75;101595.28;5467045;26;20392;-92
2024/04/16 07:42:34;;;;;;;;;;;;;;;13.56;63.04;101591.97;5467672;26;19976;-92
2024/04/16 07:45:00;;;;;;;;;;;;;;;12.27;64.14;101590.09;5467324;26;19939;-92
2024/04/16 07:47:25;;;;;;;;;;;;;;;12.50;66.42;101588.44;5466773;26;19934;-93
2024/04/16 07:49:51;;;;;;;;;;;;;;;13.54;61.90;101586.75;5466849;26;19934;-92
2024/04/16 07:52:19;;;;;;;;;;;;;;;13.97;59.69;101598.03;5466303;26;20382;-91
2024/04/16 07:54:44;;;;;;;;;;;;;;;13.85;59.35;101596.75;5467228;26;19939;-91
2024/04/16 07:57:10;;;;;;;;;;;;;;;12.65;62.92;101594.00;5496292;26;20374;-88
2024/04/16 07:59:35;;;;;;;;;;;;;;;10.90;67.81;101593.72;5496119;26;20651;-88
2024/04/16 08:02:03;;;;;;;;;;;;;;;11.89;66.65;101592.38;5526841;26;19938;-88
2024/04/16 08:04:29;;;;;;;;;;;;;;;13.25;59.51;101591.88;5465934;26;19923;-88
2024/04/16 08:06:54;;;;;;;;;;;;;;;13.80;54.91;101593.72;5495949;26;19929;-89
2024/04/16 08:09:20;;;;;;;;;;;;;;;14.11;54.33;101598.31;5496092;26;20258;-88
2024/04/16 08:11:45;;;;;;;;;;;;;;;14.60;52.98;101596.09;5467799;26;19931;-89
2024/04/16 08:14:11;;;;;;;;;;;;;;;14.77;50.47;101598.69;5539747;25;19916;-88
2024/04/16 08:16:37;;;;;;;;;;;;;;;14.90;50.93;101599.75;5521408;25;19922;-86
2024/04/16 08:19:02;;;;;;;;;;;;;;;15.23;49.28;101603.97;5475036;26;19923;-86
2024/04/16 08:21:28;;;;;;;;;;;;;;;15.21;48.35;101590.59;5499780;26;20389;-87
2024/04/16 08:23:53;;;;;;;;;;;;;;;15.09;48.38;101594.81;5499600;26;19930;-87
2024/04/16 08:26:19;;;;;;;;;;;;;;;14.83;48.74;101595.22;5469052;26;19924;-89
2024/04/16 08:28:44;;;;;;;;;;;;;;;13.44;51.56;101593.38;5497407;26;19924;-89
2024/04/16 08:31:10;;;;;;;;;;;;;;;14.00;50.52;101589.56;5466678;26;19923;-88
2024/04/16 08:33:36;;;;;;;;;;;;;;;12.68;52.44;101592.81;5497057;26;19951;-89
2024/04/16 08:36:01;;;;;;;;;;;;;;;11.73;55.45;101601.22;5526679;26;19935;-87
2024/04/16 08:38:27;;;;;;;;;;;;;;;14.10;52.49;101589.31;5496820;26;19924;-89
2024/04/16 08:40:52;;;;;;;;;;;;;;;14.24;50.23;101599.38;5466151;26;19923;-90
2024/04/16 08:43:18;;;;;;;;;;;;;;;12.58;53.50;101574.09;5526508;26;20351;-88
2024/04/16 08:45:43;;;;;;;;;;;;;;;12.29;52.96;101597.00;5495196;26;19935;-89
2024/04/16 08:48:09;;;;;;;;;;;;;;;11.09;56.48;101586.44;5494928;26;20312;-87
2024/04/16 08:50:35;;;;;;;;;;;;;;;11.08;57.55;101593.66;5525580;26;19995;-88
2024/04/16 08:53:01;;;;;;;;;;;;;;;12.10;55.59;101591.94;5493063;26;19923;-88
2024/04/16 08:55:27;;;;;;;;;;;;;;;12.12;54.99;101581.81;5464597;26;19930;-90
2024/04/16 08:57:53;;;;;;;;;;;;;;;14.35;49.49;101576.47;5494099;26;20374;-90
2024/04/16 09:00:19;;;;;;;;;;;;;;;15.12;46.34;101575.47;5495606;26;19934;-87
2024/04/16 09:02:45;;;;;;;;;;;;;;;15.08;46.03;101583.16;5526121;26;19931;-89
2024/04/16 09:05:10;;;;;;;;;;;;;;;13.11;50.36;101582.63;5495395;26;19935;-89
2024/04/16 09:07:37;;;;;;;;;;;;;;;11.57;53.27;101585.00;5525993;26;20372;-87
2024/04/16 09:10:22;;;;;;;;;;;;;;;11.92;53.01;101572.34;5464749;26;19930;-87
2024/04/16 09:12:48;;;;;;;;;;;;;;;10.77;55.72;101588.75;5495080;26;20362;-87
2024/04/16 09:15:14;;;;;;;;;;;;;;;12.67;52.67;101585.72;5495078;26;19930;-89
2024/04/16 09:17:49;;;;;;;;;;;;;;;11.64;54.50;101594.97;5464478;26;19923;-86
2024/04/16 09:20:19;;;;;;;;;;;;;;;11.47;56.42;101595.88;5495144;26;19960;-87
2024/04/16 09:22:46;;;;;;;;;;;;;;;11.62;54.83;101590.75;5495139;26;19930;-86
2024/04/16 09:25:11;;;;;;;;;;;;;;;12.19;54.34;101590.06;5464376;26;19924;-87
2024/04/16 09:27:37;;;;;;;;;;;;;;;14.17;49.76;101592.16;5464310;26;19930;-87
2024/04/16 09:30:11;;;;;;;;;;;;;;;15.41;48.14;101585.47;5494681;26;19992;-87
2024/04/16 09:32:37;;;;;;;;;;;;;;;16.25;46.66;101577.75;5495612;26;19930;-87
2024/04/16 09:35:03;;;;;;;;;;;;;;;14.14;48.07;101574.44;5494455;26;19923;-87
2024/04/16 09:37:28;;;;;;;;;;;;;;;12.85;52.08;101578.28;5464268;26;19924;-87
2024/04/16 09:39:54;;;;;;;;;;;;;;;11.93;55.56;101576.72;5525465;26;19923;-87
2024/04/16 09:42:23;;;;;;;;;;;;;;;11.09;58.09;101587.28;5464134;26;20354;-87
2024/04/16 09:44:48;;;;;;;;;;;;;;;10.75;59.38;101585.38;5494624;26;19923;-88
2024/04/16 09:47:14;;;;;;;;;;;;;;;11.91;57.56;101589.50;5494345;26;19935;-88
2024/04/16 09:49:39;;;;;;;;;;;;;;;14.91;49.96;101590.56;5525108;26;20265;-88
2024/04/16 09:52:05;;;;;;;;;;;;;;;15.53;46.63;101584.00;5494366;26;19923;-89
2024/04/16 09:54:30;;;;;;;;;;;;;;;15.94;47.26;101598.91;5494846;26;19924;-87
2024/04/16 09:56:56;;;;;;;;;;;;;;;15.95;45.71;101598.69;5529705;26;19934;-88
2024/04/16 09:59:21;;;;;;;;;;;;;;;15.45;46.67;101591.34;5534273;26;19923;-89
2024/04/16 10:01:47;;;;;;;;;;;;;;;14.49;48.84;101591.09;5484672;26;20358;-88
2024/04/16 10:04:12;;;;;;;;;;;;;;;13.61;51.01;101598.53;5496657;26;19923;-88
2024/04/16 10:06:38;;;;;;;;;;;;;;;13.24;51.14;101607.25;5524919;26;19923;-89
2024/04/16 10:09:03;;;;;;;;;;;;;;;12.85;52.65;101612.53;5526245;26;19930;-87
2024/04/16 10:11:29;;;;;;;;;;;;;;;12.45;54.44;101608.81;5497777;26;19930;-89
2024/04/16 10:13:54;;;;;;;;;;;;;;;12.27;55.85;101609.81;5528481;26;19951;-89
2024/04/16 10:16:20;;;;;;;;;;;;;;;12.34;56.62;101611.84;5528678;26;19923;-88
2024/04/16 10:18:55;;;;;;;;;;;;;;;12.46;56.52;101616.75;5467106;26;19936;-88
2024/04/16 10:21:24;;;;;;;;;;;;;;;12.79;56.59;101613.22;5497900;26;19930;-89
2024/04/16 10:23:59;;;;;;;;;;;;;;;12.40;56.06;101619.28;5467106;26;19923;-88
2024/04/16 10:26:25;;;;;;;;;;;;;;;11.51;58.15;101620.63;5497349;26;19924;-88
2024/04/16 10:28:54;;;;;;;;;;;;;;;13.72;54.75;101621.63;5497481;26;19923;-87
2024/04/16 10:31:19;;;;;;;;;;;;;;;15.61;48.55;101610.13;5467130;26;19935;-87
2024/04/16 10:33:46;;;;;;;;;;;;;;;-146.42;100.00;66673.91;5497469;26;20366;-85
2024/04/16 10:36:12;;;;;;;;;;;;;;;-146.42;100.00;66673.91;5528284;26;20369;-87
2024/04/16 10:38:37;;;;;;;;;;;;;;;17.08;44.31;101599.78;5467066;26;19923;-87
2024/04/16 10:41:03;;;;;;;;;;;;;;;16.57;45.29;101591.84;5497245;26;20365;-86
2024/04/16 10:43:28;;;;;;;;;;;;;;;16.44;45.18;101591.72;5528138;26;20351;-87
2024/04/16 10:45:54;;;;;;;;;;;;;;;16.12;45.79;101593.91;5497215;26;19927;-86
2024/04/16 10:48:20;;;;;;;;;;;;;;;15.35;45.30;101602.50;5466728;26;19923;-86
2024/04/16 10:50:46;;;;;;;;;;;;;;;13.30;51.64;101601.19;5466792;26;19923;-86
2024/04/16 10:53:13;;;;;;;;;;;;;;;12.18;57.15;101610.81;5466626;26;19923;-89
2024/04/16 10:55:41;;;;;;;;;;;;;;;12.41;54.31;101608.31;5468659;26;20054;-89
2024/04/16 10:58:08;;;;;;;;;;;;;;;13.28;52.25;101605.06;5530016;26;19923;-87
2024/04/16 11:00:33;;;;;;;;;;;;;;;14.63;47.20;101612.00;5515093;25;19992;-85
2024/04/16 11:02:59;;;;;;;;;;;;;;;15.54;45.97;101606.50;5491860;25;19931;-85
2024/04/16 11:05:24;;;;;;;;;;;;;;;16.26;45.82;101606.56;5512055;25;19964;-87
2024/04/16 11:07:50;;;;;;;;;;;;;;;16.49;44.52;101605.56;5528311;26;19923;-87
2024/04/16 11:10:15;;;;;;;;;;;;;;;17.00;41.73;101612.69;5497690;26;19923;-87
2024/04/16 11:12:41;;;;;;;;;;;;;;;16.09;41.40;101612.41;5496720;26;19973;-87
2024/04/16 11:15:07;;;;;;;;;;;;;;;15.44;43.01;101609.50;5496863;26;19990;-87
2024/04/16 11:17:34;;;;;;;;;;;;;;;15.47;43.07;101616.41;5527523;26;20265;-88
2024/04/16 11:19:59;;;;;;;;;;;;;;;16.35;42.71;101620.00;5465958;26;19930;-88
2024/04/16 11:22:26;;;;;;;;;;;;;;;15.82;44.02;101610.25;5497012;26;20330;-87
2024/04/16 11:24:51;;;;;;;;;;;;;;;15.71;44.67;101613.44;5496760;26;19972;-87
2024/04/16 11:27:17;;;;;;;;;;;;;;;16.48;44.64;101612.00;5466277;26;19931;-87
2024/04/16 11:29:46;;;;;;;;;;;;;;;15.90;43.62;101614.69;5527531;26;19934;-86
2024/04/16 11:32:12;;;;;;;;;;;;;;;15.68;44.39;101619.19;5467149;26;20348;-86
2024/04/16 11:34:37;;;;;;;;;;;;;;;16.25;44.26;101612.19;5466069;26;19924;-88
2024/04/16 11:37:04;;;;;;;;;;;;;;;15.04;45.80;101618.91;5496627;26;19935;-85
2024/04/16 11:39:29;;;;;;;;;;;;;;;14.76;45.19;101614.06;5466066;26;20368;-86
2024/04/16 11:41:55;;;;;;;;;;;;;;;14.37;46.54;101620.44;5465805;26;19924;-86
2024/04/16 11:44:21;;;;;;;;;;;;;;;13.36;49.25;101618.53;5527121;26;19923;-89
2024/04/16 11:46:46;;;;;;;;;;;;;;;12.71;50.25;101628.41;5465900;26;19923;-87
2024/04/16 11:49:13;;;;;;;;;;;;;;;13.11;47.79;101623.13;5527011;26;19930;-86
2024/04/16 11:51:38;;;;;;;;;;;;;;;14.78;44.22;101630.13;5496517;26;19936;-87
2024/04/16 11:54:04;;;;;;;;;;;;;;;15.89;43.30;101620.34;5526785;26;19923;-87
2024/04/16 11:56:29;;;;;;;;;;;;;;;16.06;41.81;101613.63;5527094;26;19923;-87
2024/04/16 11:58:55;;;;;;;;;;;;;;;15.36;42.73;101604.16;5496455;26;19935;-86
2024/04/16 12:01:23;;;;;;;;;;;;;;;15.10;43.04;101618.16;5496122;26;19923;-86
2024/04/16 12:03:49;;;;;;;;;;;;;;;15.15;43.13;101613.88;5497754;26;19991;-86
2024/04/16 12:06:15;;;;;;;;;;;;;;;15.51;43.53;101617.72;5526824;26;20365;-86
2024/04/16 12:08:40;;;;;;;;;;;;;;;15.57;41.47;101612.38;5526313;26;19930;-85
2024/04/16 12:11:06;;;;;;;;;;;;;;;14.42;43.58;101614.47;5495886;26;19951;-86
2024/04/16 12:13:33;;;;;;;;;;;;;;;14.63;43.94;101606.59;5495373;26;20220;-86
2024/04/16 12:15:59;;;;;;;;;;;;;;;14.45;44.64;101614.13;5526670;26;20261;-86
2024/04/16 12:18:24;;;;;;;;;;;;;;;13.93;46.40;101618.34;5495869;26;19935;-87
2024/04/16 12:20:50;;;;;;;;;;;;;;;13.46;48.12;101610.25;5496130;26;19927;-86
2024/04/16 12:23:15;;;;;;;;;;;;;;;13.50;48.41;101617.84;5526908;26;19934;-86
2024/04/16 12:25:41;;;;;;;;;;;;;;;15.26;46.15;101623.41;5495618;26;19935;-87
2024/04/16 12:28:06;;;;;;;;;;;;;;;15.56;44.71;101620.72;5465345;26;20354;-87
2024/04/16 12:30:32;;;;;;;;;;;;;;;15.02;45.92;101616.38;5495332;26;19934;-86
2024/04/16 12:32:57;;;;;;;;;;;;;;;14.79;46.53;101620.97;5494487;26;19931;-87